3TA3 weather

Baltzell's Las Brisas Heliport
Bandera, Texas, United States

Public forecast

Using degrees Fahrenheit for public forecast. Weather courtesy of forecast.io.

Closest aviation weather report (METAR) to Baltzell's Las Brisas Heliport

Closest report is Boerne Stage Field, 15.4 nm (28.6 km) ENE. Retrieved 2020/08/07 00:35 UTC (0 seconds ago):

K5C1 070035Z AUTO 16007G14KT 10SM SCT065 32/17 A2997 RMK AO1

Closest aviation forecast (TAF) to Baltzell's Las Brisas Heliport

Forecast is more than 6 hours old.

Closest forecast is Lackland Air Force Base, 22.7 nm (42.0 km) ESE. Retrieved 2020/08/06 18:06 UTC (6 hours ago):

TAF TAF KSKF 061800Z 0618/0724 14012KT 9999 SCT040 QNH2987INS TEMPO 0623/0705 13014G20KT BECMG 0708/0709 15007KT 9999 BKN012 QNH2999INS TEMPO 0710/0714 BKN008 BKN012 BECMG 0714/0715 16009KT 9999 SCT020 QNH3003INS TX37/0622Z TN25/0711Z